Time,TemperatureF,DewpointF,PressureIn,WindDirection,WindDirectionDegrees,WindSpeedMPH,WindSpeedGustMPH,Humidity,HourlyPrecipIn,Conditions,Clouds,dailyrainin,SoftwareType,DateUTC
2013-01-23 00:02:00,36.0,8.0,-100.00,South,190,2.0,3.0,31,-99.99,,,-99.99,,2013-01-23 07:02:00,
2013-01-23 00:12:00,36.0,8.0,-100.00,South,190,2.0,3.0,31,-99.99,,,-99.99,,2013-01-23 07:12:00,
2013-01-23 00:22:00,38.0,7.0,-100.00,SW,226,2.0,4.0,27,-99.99,,,-99.99,,2013-01-23 07:22:00,
2013-01-23 00:33:00,38.0,7.0,-100.00,SW,226,2.0,4.0,27,-99.99,,,-99.99,,2013-01-23 07:33:00,
2013-01-23 00:42:00,38.0,7.0,-100.00,SW,226,2.0,4.0,27,-99.99,,,-99.99,,2013-01-23 07:42:00,
2013-01-23 01:33:00,36.0,8.0,-100.00,West,266,2.0,3.0,30,-99.99,,,-99.99,,2013-01-23 08:33:00,
2013-01-23 01:42:00,36.0,8.0,-100.00,West,266,2.0,3.0,30,-99.99,,,-99.99,,2013-01-23 08:42:00,
2013-01-23 01:52:00,35.0,7.0,-100.00,WSW,238,2.0,4.0,30,-99.99,,,-99.99,,2013-01-23 08:52:00,
2013-01-23 02:02:00,34.0,9.0,-100.00,WSW,246,2.0,4.0,34,-99.99,,,-99.99,,2013-01-23 09:02:00,
2013-01-23 02:12:00,34.0,9.0,-100.00,WSW,246,2.0,4.0,34,-99.99,,,-99.99,,2013-01-23 09:12:00,
2013-01-23 02:22:00,35.0,9.0,-100.00,West,270,3.0,4.0,33,-99.99,,,-99.99,,2013-01-23 09:22:00,
2013-01-23 02:32:00,34.0,7.0,-100.00,West,261,2.0,3.0,32,-99.99,,,-99.99,,2013-01-23 09:32:00,
2013-01-23 02:43:00,34.0,7.0,-100.00,West,261,2.0,3.0,32,-99.99,,,-99.99,,2013-01-23 09:43:00,
2013-01-23 02:52:00,38.0,6.0,-100.00,SSW,209,3.0,5.0,26,-99.99,,,-99.99,,2013-01-23 09:52:00,
2013-01-23 03:02:00,36.0,7.0,-100.00,WSW,258,2.0,4.0,29,-99.99,,,-99.99,,2013-01-23 10:02:00,
2013-01-23 03:12:00,36.0,7.0,-100.00,WSW,258,2.0,4.0,29,-99.99,,,-99.99,,2013-01-23 10:12:00,
2013-01-23 03:22:00,35.0,7.0,-100.00,WSW,244,2.0,4.0,31,-99.99,,,-99.99,,2013-01-23 10:22:00,
2013-01-23 03:32:00,35.0,7.0,-100.00,SW,230,2.0,3.0,30,-99.99,,,-99.99,,2013-01-23 10:32:00,
2013-01-23 03:42:00,35.0,7.0,-100.00,SW,230,2.0,3.0,30,-99.99,,,-99.99,,2013-01-23 10:42:00,
2013-01-23 03:52:00,35.0,7.0,-100.00,SSW,197,3.0,4.0,31,-99.99,,,-99.99,,2013-01-23 10:52:00,
2013-01-23 04:02:00,34.0,7.0,-100.00,SW,217,2.0,3.0,31,-99.99,,,-99.99,,2013-01-23 11:02:00,
2013-01-23 04:12:00,34.0,7.0,-100.00,SW,217,2.0,3.0,31,-99.99,,,-99.99,,2013-01-23 11:12:00,
2013-01-23 04:22:00,36.0,8.0,-100.00,SSW,205,3.0,4.0,30,-99.99,,,-99.99,,2013-01-23 11:22:00,
2013-01-23 04:32:00,35.0,7.0,-100.00,SW,216,2.0,3.0,30,-99.99,,,-99.99,,2013-01-23 11:32:00,
2013-01-23 04:42:00,35.0,7.0,-100.00,SW,216,2.0,3.0,30,-99.99,,,-99.99,,2013-01-23 11:42:00,
2013-01-23 04:52:00,33.0,8.0,-100.00,SW,227,3.0,3.0,35,-99.99,,,-99.99,,2013-01-23 11:52:00,
2013-01-23 05:02:00,33.0,7.0,-100.00,WSW,248,2.0,4.0,33,-99.99,,,-99.99,,2013-01-23 12:02:00,
2013-01-23 05:12:00,33.0,7.0,-100.00,WSW,248,2.0,4.0,33,-99.99,,,-99.99,,2013-01-23 12:12:00,
2013-01-23 05:22:00,33.0,6.0,-100.00,SW,231,3.0,4.0,32,-99.99,,,-99.99,,2013-01-23 12:22:00,
2013-01-23 05:33:00,33.0,8.0,-100.00,SW,233,3.0,4.0,34,-99.99,,,-99.99,,2013-01-23 12:33:00,
2013-01-23 05:42:00,33.0,8.0,-100.00,SW,233,3.0,4.0,34,-99.99,,,-99.99,,2013-01-23 12:42:00,
2013-01-23 05:52:00,34.0,6.0,-100.00,SW,229,3.0,4.0,30,-99.99,,,-99.99,,2013-01-23 12:52:00,
2013-01-23 06:03:00,34.0,7.0,-100.00,WSW,251,2.0,4.0,32,-99.99,,,-99.99,,2013-01-23 13:03:00,
2013-01-23 06:12:00,34.0,7.0,-100.00,WSW,251,2.0,4.0,32,-99.99,,,-99.99,,2013-01-23 13:12:00,
2013-01-23 06:23:00,34.0,7.0,-100.00,SW,228,2.0,3.0,31,-99.99,,,-99.99,,2013-01-23 13:23:00,
2013-01-23 06:33:00,33.0,7.0,-100.00,WSW,250,3.0,4.0,33,-99.99,,,-99.99,,2013-01-23 13:33:00,
2013-01-23 06:42:00,33.0,7.0,-100.00,WSW,250,3.0,4.0,33,-99.99,,,-99.99,,2013-01-23 13:42:00,
2013-01-23 06:52:00,33.0,8.0,-100.00,WSW,242,2.0,4.0,35,-99.99,,,-99.99,,2013-01-23 13:52:00,
2013-01-23 07:02:00,32.0,8.0,-100.00,WSW,256,3.0,4.0,36,-99.99,,,-99.99,,2013-01-23 14:02:00,
2013-01-23 07:12:00,32.0,8.0,-100.00,WSW,256,3.0,4.0,36,-99.99,,,-99.99,,2013-01-23 14:12:00,
2013-01-23 07:23:00,33.0,10.0,-100.00,WSW,254,3.0,4.0,38,-99.99,,,-99.99,,2013-01-23 14:23:00,
2013-01-23 07:33:00,32.0,9.0,-100.00,West,265,3.0,6.0,38,-99.99,,,-99.99,,2013-01-23 14:33:00,
2013-01-23 07:42:00,32.0,9.0,-100.00,West,265,3.0,6.0,38,-99.99,,,-99.99,,2013-01-23 14:42:00,
2013-01-23 07:53:00,34.0,9.0,-100.00,WSW,253,3.0,5.0,34,-99.99,,,-99.99,,2013-01-23 14:53:00,
2013-01-23 08:02:00,35.0,7.0,-100.00,West,274,3.0,5.0,30,-99.99,,,-99.99,,2013-01-23 15:02:00,
2013-01-23 08:12:00,35.0,7.0,-100.00,West,274,3.0,5.0,30,-99.99,,,-99.99,,2013-01-23 15:12:00,
2013-01-23 08:22:00,35.0,7.0,-100.00,WNW,287,4.0,6.0,30,-99.99,,,-99.99,,2013-01-23 15:22:00,
2013-01-23 08:33:00,35.0,7.0,-100.00,West,274,3.0,5.0,31,-99.99,,,-99.99,,2013-01-23 15:33:00,
2013-01-23 08:43:00,35.0,7.0,-100.00,West,274,3.0,5.0,31,-99.99,,,-99.99,,2013-01-23 15:43:00,
2013-01-23 08:52:00,34.0,10.0,-100.00,West,271,3.0,5.0,36,-99.99,,,-99.99,,2013-01-23 15:52:00,
2013-01-23 09:02:00,36.0,7.0,-100.00,WSW,251,2.0,4.0,29,-99.99,,,-99.99,,2013-01-23 16:02:00,
2013-01-23 09:12:00,36.0,7.0,-100.00,WSW,251,2.0,4.0,29,-99.99,,,-99.99,,2013-01-23 16:12:00,
2013-01-23 09:22:00,36.0,8.0,-100.00,West,276,3.0,5.0,30,-99.99,,,-99.99,,2013-01-23 16:22:00,
2013-01-23 09:32:00,37.0,8.0,-100.00,West,272,1.0,3.0,29,-99.99,,,-99.99,,2013-01-23 16:32:00,
2013-01-23 09:42:00,37.0,8.0,-100.00,West,272,1.0,3.0,29,-99.99,,,-99.99,,2013-01-23 16:42:00,
2013-01-23 09:52:00,39.0,5.0,-100.00,NW,322,1.0,3.0,24,-99.99,,,-99.99,,2013-01-23 16:52:00,
2013-01-23 10:02:00,39.0,6.0,-100.00,NNW,331,1.0,6.0,25,-99.99,,,-99.99,,2013-01-23 17:02:00,
2013-01-23 10:12:00,39.0,6.0,-100.00,NNW,331,1.0,6.0,25,-99.99,,,-99.99,,2013-01-23 17:12:00,
2013-01-23 10:22:00,40.0,5.0,-100.00,NNE,14,1.0,4.0,23,-99.99,,,-99.99,,2013-01-23 17:22:00,
2013-01-23 10:33:00,40.0,5.0,-100.00,NW,326,5.0,8.0,23,-99.99,,,-99.99,,2013-01-23 17:33:00,
2013-01-23 10:42:00,40.0,5.0,-100.00,NW,326,5.0,8.0,23,-99.99,,,-99.99,,2013-01-23 17:42:00,
2013-01-23 10:52:00,40.0,6.0,-100.00,NW,322,3.0,4.0,24,-99.99,,,-99.99,,2013-01-23 17:52:00,
2013-01-23 11:03:00,41.0,6.0,-100.00,WNW,295,3.0,8.0,23,-99.99,,,-99.99,,2013-01-23 18:03:00,
2013-01-23 11:12:00,41.0,6.0,-100.00,WNW,295,3.0,8.0,23,-99.99,,,-99.99,,2013-01-23 18:12:00,
2013-01-23 11:23:00,42.0,5.0,-100.00,NNW,327,5.0,7.0,21,-99.99,,,-99.99,,2013-01-23 18:23:00,
2013-01-23 11:33:00,42.0,5.0,-100.00,NNW,327,5.0,7.0,21,-99.99,,,-99.99,,2013-01-23 18:33:00,
2013-01-23 11:43:00,42.0,5.0,-100.00,NNW,327,5.0,7.0,21,-99.99,,,-99.99,,2013-01-23 18:43:00,
2013-01-23 11:53:00,43.0,6.0,-100.00,NNW,346,3.0,5.0,21,-99.99,,,-99.99,,2013-01-23 18:53:00,
2013-01-23 12:02:00,43.0,6.0,-100.00,WNW,303,4.0,8.0,21,-99.99,,,-99.99,,2013-01-23 19:02:00,
2013-01-23 12:12:00,43.0,6.0,-100.00,WNW,303,4.0,8.0,21,-99.99,,,-99.99,,2013-01-23 19:12:00,
2013-01-23 12:22:00,41.0,9.0,-100.00,NW,311,3.0,6.0,26,-99.99,,,-99.99,,2013-01-23 19:22:00,
2013-01-23 12:33:00,41.0,8.0,-100.00,WNW,297,2.0,5.0,25,-99.99,,,-99.99,,2013-01-23 19:33:00,
2013-01-23 12:43:00,41.0,8.0,-100.00,WNW,297,2.0,5.0,25,-99.99,,,-99.99,,2013-01-23 19:43:00,
2013-01-23 12:52:00,41.0,8.0,-100.00,NNW,327,5.0,10.0,25,-99.99,,,-99.99,,2013-01-23 19:52:00,
2013-01-23 13:03:00,41.0,8.0,-100.00,NW,315,4.0,10.0,25,-99.99,,,-99.99,,2013-01-23 20:03:00,
2013-01-23 13:12:00,41.0,8.0,-100.00,NW,315,4.0,10.0,25,-99.99,,,-99.99,,2013-01-23 20:12:00,
2013-01-23 13:22:00,42.0,10.0,-100.00,WSW,246,1.0,3.0,26,-99.99,,,-99.99,,2013-01-23 20:22:00,
2013-01-23 13:32:00,42.0,10.0,-100.00,WSW,246,1.0,3.0,26,-99.99,,,-99.99,,2013-01-23 20:32:00,
2013-01-23 13:42:00,42.0,10.0,-100.00,WSW,246,1.0,3.0,26,-99.99,,,-99.99,,2013-01-23 20:42:00,
2013-01-23 13:53:00,43.0,10.0,-100.00,West,272,2.0,7.0,25,-99.99,,,-99.99,,2013-01-23 20:53:00,
2013-01-23 14:02:00,45.0,11.0,-100.00,NNW,328,2.0,3.0,25,-99.99,,,-99.99,,2013-01-23 21:02:00,
2013-01-23 14:12:00,45.0,11.0,-100.00,NNW,328,2.0,3.0,25,-99.99,,,-99.99,,2013-01-23 21:12:00,
2013-01-23 14:22:00,45.0,12.0,-100.00,SW,227,1.0,3.0,26,-99.99,,,-99.99,,2013-01-23 21:22:00,
2013-01-23 14:33:00,45.0,12.0,-100.00,SW,227,1.0,3.0,26,-99.99,,,-99.99,,2013-01-23 21:33:00,
2013-01-23 14:42:00,45.0,12.0,-100.00,SW,227,1.0,3.0,26,-99.99,,,-99.99,,2013-01-23 21:42:00,
2013-01-23 14:52:00,43.0,12.0,-100.00,West,270,2.0,6.0,28,-99.99,,,-99.99,,2013-01-23 21:52:00,
2013-01-23 15:02:00,42.0,13.0,-100.00,West,278,2.0,5.0,30,-99.99,,,-99.99,,2013-01-23 22:02:00,
2013-01-23 15:12:00,42.0,13.0,-100.00,West,278,2.0,5.0,30,-99.99,,,-99.99,,2013-01-23 22:12:00,
2013-01-23 15:22:00,42.0,14.0,-100.00,SW,230,1.0,4.0,31,-99.99,,,-99.99,,2013-01-23 22:22:00,
2013-01-23 15:33:00,42.0,14.0,-100.00,WSW,245,1.0,5.0,31,-99.99,,,-99.99,,2013-01-23 22:33:00,
2013-01-23 15:42:00,42.0,14.0,-100.00,WSW,245,1.0,5.0,31,-99.99,,,-99.99,,2013-01-23 22:42:00,
2013-01-23 15:52:00,42.0,14.0,-100.00,WSW,257,2.0,5.0,32,-99.99,,,-99.99,,2013-01-23 22:52:00,
2013-01-23 16:02:00,42.0,14.0,-100.00,NW,322,2.0,5.0,32,-99.99,,,-99.99,,2013-01-23 23:02:00,
2013-01-23 16:12:00,42.0,14.0,-100.00,NW,322,2.0,5.0,32,-99.99,,,-99.99,,2013-01-23 23:12:00,
2013-01-23 16:22:00,41.0,14.0,-100.00,NW,309,2.0,5.0,33,-99.99,,,-99.99,,2013-01-23 23:22:00,
2013-01-23 16:33:00,40.0,15.0,-100.00,WNW,298,2.0,7.0,35,-99.99,,,-99.99,,2013-01-23 23:33:00,
2013-01-23 16:42:00,40.0,15.0,-100.00,WNW,298,2.0,7.0,35,-99.99,,,-99.99,,2013-01-23 23:42:00,
2013-01-23 16:52:00,41.0,15.0,-100.00,NNW,335,2.0,6.0,34,-99.99,,,-99.99,,2013-01-23 23:52:00,
2013-01-23 17:02:00,40.0,16.0,-100.00,West,274,1.0,2.0,38,-99.99,,,-99.99,,2013-01-24 00:02:00,
2013-01-23 17:12:00,40.0,16.0,-100.00,West,274,1.0,2.0,38,-99.99,,,-99.99,,2013-01-24 00:12:00,
2013-01-23 17:22:00,39.0,16.0,-100.00,West,267,2.0,5.0,39,-99.99,,,-99.99,,2013-01-24 00:22:00,
2013-01-23 17:32:00,40.0,16.0,-100.00,WNW,302,2.0,6.0,38,-99.99,,,-99.99,,2013-01-24 00:32:00,
2013-01-23 17:42:00,40.0,16.0,-100.00,WNW,302,2.0,6.0,38,-99.99,,,-99.99,,2013-01-24 00:42:00,
2013-01-23 17:52:00,39.0,16.0,-100.00,WNW,299,2.0,7.0,39,-99.99,,,-99.99,,2013-01-24 00:52:00,
2013-01-23 18:02:00,38.0,17.0,-100.00,WNW,295,1.0,3.0,42,-99.99,,,-99.99,,2013-01-24 01:02:00,
2013-01-23 18:12:00,38.0,17.0,-100.00,WNW,295,1.0,3.0,42,-99.99,,,-99.99,,2013-01-24 01:12:00,
2013-01-23 18:22:00,38.0,18.0,-100.00,West,273,2.0,5.0,43,-99.99,,,-99.99,,2013-01-24 01:22:00,
2013-01-23 18:32:00,39.0,18.0,-100.00,WSW,252,1.0,2.0,42,-99.99,,,-99.99,,2013-01-24 01:32:00,
2013-01-23 18:42:00,39.0,18.0,-100.00,WSW,252,1.0,2.0,42,-99.99,,,-99.99,,2013-01-24 01:42:00,
2013-01-23 18:52:00,39.0,18.0,-100.00,NW,320,2.0,4.0,43,-99.99,,,-99.99,,2013-01-24 01:52:00,
2013-01-23 19:02:00,38.0,18.0,-100.00,WNW,292,2.0,4.0,43,-99.99,,,-99.99,,2013-01-24 02:02:00,
2013-01-23 19:12:00,38.0,18.0,-100.00,WNW,292,2.0,4.0,43,-99.99,,,-99.99,,2013-01-24 02:12:00,
2013-01-23 19:22:00,38.0,19.0,-100.00,WNW,301,2.0,5.0,45,-99.99,,,-99.99,,2013-01-24 02:22:00,
2013-01-23 19:32:00,38.0,19.0,-100.00,WSW,248,1.0,3.0,46,-99.99,,,-99.99,,2013-01-24 02:32:00,
2013-01-23 19:42:00,38.0,19.0,-100.00,WSW,248,1.0,3.0,46,-99.99,,,-99.99,,2013-01-24 02:42:00,
2013-01-23 19:52:00,38.0,19.0,-100.00,WSW,248,1.0,3.0,46,-99.99,,,-99.99,,2013-01-24 02:52:00,
2013-01-23 20:02:00,37.0,20.0,-100.00,West,277,1.0,3.0,49,-99.99,,,-99.99,,2013-01-24 03:02:00,
2013-01-23 20:12:00,37.0,20.0,-100.00,West,277,1.0,3.0,49,-99.99,,,-99.99,,2013-01-24 03:12:00,
2013-01-23 20:22:00,37.0,20.0,-100.00,West,275,1.0,4.0,49,-99.99,,,-99.99,,2013-01-24 03:22:00,
2013-01-23 20:32:00,38.0,21.0,-100.00,West,262,1.0,2.0,49,-99.99,,,-99.99,,2013-01-24 03:32:00,
2013-01-23 20:42:00,38.0,21.0,-100.00,West,262,1.0,2.0,49,-99.99,,,-99.99,,2013-01-24 03:42:00,
2013-01-23 20:52:00,37.0,21.0,-100.00,SSW,211,1.0,2.0,51,-99.99,,,-99.99,,2013-01-24 03:52:00,
2013-01-23 21:02:00,38.0,22.0,-100.00,SW,223,1.0,3.0,51,-99.99,,,-99.99,,2013-01-24 04:02:00,
2013-01-23 21:12:00,38.0,22.0,-100.00,SW,223,1.0,3.0,51,-99.99,,,-99.99,,2013-01-24 04:12:00,
2013-01-23 21:22:00,37.0,21.0,-100.00,West,260,2.0,4.0,53,-99.99,,,-99.99,,2013-01-24 04:22:00,
2013-01-23 21:32:00,37.0,21.0,-100.00,WNW,287,3.0,7.0,53,-99.99,,,-99.99,,2013-01-24 04:32:00,
2013-01-23 21:42:00,37.0,21.0,-100.00,WNW,287,3.0,7.0,53,-99.99,,,-99.99,,2013-01-24 04:42:00,
2013-01-23 21:52:00,37.0,22.0,-100.00,WNW,289,2.0,4.0,54,-99.99,,,-99.99,,2013-01-24 04:52:00,
2013-01-23 22:03:00,37.0,22.0,-100.00,WSW,253,2.0,5.0,54,-99.99,,,-99.99,,2013-01-24 05:03:00,
2013-01-23 22:12:00,37.0,22.0,-100.00,WSW,253,2.0,5.0,54,-99.99,,,-99.99,,2013-01-24 05:12:00,
2013-01-23 22:22:00,36.0,21.0,-100.00,West,265,1.0,2.0,55,-99.99,,,-99.99,,2013-01-24 05:22:00,
2013-01-23 22:32:00,37.0,22.0,-100.00,West,275,2.0,5.0,54,-99.99,,,-99.99,,2013-01-24 05:32:00,
2013-01-23 22:42:00,37.0,22.0,-100.00,West,275,2.0,5.0,54,-99.99,,,-99.99,,2013-01-24 05:42:00,
2013-01-23 22:52:00,37.0,21.0,-100.00,West,272,3.0,6.0,51,-99.99,,,-99.99,,2013-01-24 05:52:00,
2013-01-23 23:02:00,37.0,20.0,-100.00,NW,312,1.0,4.0,50,-99.99,,,-99.99,,2013-01-24 06:02:00,
2013-01-23 23:12:00,37.0,20.0,-100.00,NW,312,1.0,4.0,50,-99.99,,,-99.99,,2013-01-24 06:12:00,
2013-01-23 23:22:00,37.0,20.0,-100.00,West,277,1.0,3.0,50,-99.99,,,-99.99,,2013-01-24 06:22:00,
2013-01-23 23:32:00,36.0,20.0,-100.00,West,262,3.0,5.0,52,-99.99,,,-99.99,,2013-01-24 06:32:00,
2013-01-23 23:42:00,36.0,20.0,-100.00,West,262,3.0,5.0,52,-99.99,,,-99.99,,2013-01-24 06:42:00,
2013-01-23 23:52:00,38.0,21.0,-100.00,WSW,251,2.0,4.0,50,-99.99,,,-99.99,,2013-01-24 06:52:00,